createdAt,value
2022-12-12T00:02:44.048Z,97406.75
2022-12-12T00:07:46.011Z,97411.94
2022-12-12T00:12:48.193Z,97400.16
2022-12-12T00:17:50.226Z,97407.09
2022-12-12T00:22:52.084Z,97396.19
2022-12-12T00:27:54.030Z,97395.38
2022-12-12T00:32:55.871Z,97396.91
2022-12-12T00:37:57.686Z,97387.53
2022-12-12T00:42:59.432Z,97396.69
2022-12-12T00:48:01.185Z,97391.47
2022-12-12T00:53:03.217Z,97397.28
2022-12-12T00:58:05.232Z,97400.63
2022-12-12T01:03:07.441Z,97405.94
2022-12-12T01:08:09.406Z,97408.38
2022-12-12T01:13:11.331Z,97417.63
2022-12-12T01:18:14.262Z,97423.66
2022-12-12T01:23:16.161Z,97411.84
2022-12-12T01:28:17.961Z,97408.59
2022-12-12T01:33:19.897Z,97409.63
2022-12-12T01:38:22.143Z,97413.81
2022-12-12T01:43:25.571Z,97413.69
2022-12-12T01:48:45.455Z,97421.44
2022-12-12T01:53:50.185Z,97420.63
2022-12-12T01:58:54.992Z,97423.16
2022-12-12T02:03:59.264Z,97417.97
2022-12-12T02:09:04.342Z,97415.53
2022-12-12T02:14:06.225Z,97413.69
2022-12-12T02:19:44.160Z,97411.25
2022-12-12T02:25:12.564Z,97415.66
2022-12-12T02:30:38.126Z,97411.38
2022-12-12T02:36:00.146Z,97418.19
2022-12-12T02:41:25.200Z,97408.94
2022-12-12T02:46:41.573Z,97410.66
2022-12-12T02:51:46.133Z,97410.66
2022-12-12T02:56:50.669Z,97407.41
2022-12-12T03:01:58.476Z,97410.88
2022-12-12T03:07:35.924Z,97416.09
2022-12-12T03:12:49.083Z,97413.44
2022-12-12T03:18:05.718Z,97415.16
2022-12-12T03:23:14.193Z,97404.75
2022-12-12T03:28:31.070Z,97404.66
2022-12-12T03:33:55.188Z,97414.13
2022-12-12T03:39:02.045Z,97409.16
2022-12-12T03:44:41.742Z,97404.75
2022-12-12T03:49:50.341Z,97410.78
2022-12-12T03:55:21.580Z,97409.03
2022-12-12T04:00:23.538Z,97411.47
2022-12-12T04:06:01.184Z,97408.81
2022-12-12T04:11:39.308Z,97410.44
2022-12-12T04:16:46.519Z,97411.25
2022-12-12T04:22:18.138Z,97411.25
2022-12-12T04:27:30.811Z,97412.88
2022-12-12T04:32:37.731Z,97407.91
2022-12-12T04:37:47.465Z,97418.88
2022-12-12T04:43:13.897Z,97418.66
2022-12-12T04:48:22.063Z,97417.75
2022-12-12T04:53:33.404Z,97422.94
2022-12-12T04:58:37.790Z,97428.63
2022-12-12T05:03:49.382Z,97416.59
2022-12-12T05:08:54.824Z,97427.72
2022-12-12T05:13:56.661Z,97439.53
2022-12-12T05:19:01.894Z,97444.59
2022-12-12T05:24:03.986Z,97447.16
2022-12-12T05:29:07.688Z,97445.41
2022-12-12T05:34:10.329Z,97440.44
2022-12-12T05:39:12.091Z,97436.28
2022-12-12T05:44:13.981Z,97446.44
2022-12-12T05:49:15.825Z,97448.06
2022-12-12T05:54:17.642Z,97458.25
2022-12-12T05:59:19.491Z,97451.53
2022-12-12T06:04:21.336Z,97446.44
2022-12-12T06:09:23.493Z,97450.63
2022-12-12T06:14:26.411Z,97451.53
2022-12-12T06:19:28.231Z,97460.31
2022-12-12T06:24:30.225Z,97460.44
2022-12-12T06:29:32.554Z,97465.41
2022-12-12T06:34:34.461Z,97471.31
2022-12-12T06:39:38.005Z,97481.59
2022-12-12T06:44:39.809Z,97481.59
2022-12-12T06:49:41.649Z,97477.53
2022-12-12T06:54:43.485Z,97484.47
2022-12-12T06:59:45.323Z,97493.16
2022-12-12T07:04:47.175Z,97494.88
2022-12-12T07:09:49.109Z,97498.13
2022-12-12T07:14:51.029Z,97501.47
2022-12-12T07:19:53.315Z,97512.38
2022-12-12T07:24:55.405Z,97514.91
2022-12-12T07:29:57.416Z,97522.56
2022-12-12T07:34:59.271Z,97529.38
2022-12-12T07:40:01.182Z,97531.00
2022-12-12T07:45:03.063Z,97528.34
2022-12-12T07:50:05.199Z,97531.59
2022-12-12T07:55:07.587Z,97532.41
2022-12-12T08:00:13.579Z,97532.31
2022-12-12T08:05:16.528Z,97533.94
2022-12-12T08:10:18.529Z,97534.75
2022-12-12T08:15:20.781Z,97534.53
2022-12-12T08:20:23.095Z,97543.69
2022-12-12T08:25:24.927Z,97559.25
2022-12-12T08:30:28.043Z,97550.56
2022-12-12T08:35:31.785Z,97558.81
2022-12-12T08:40:37.297Z,97559.41
2022-12-12T08:45:39.475Z,97560.91
2022-12-12T08:50:41.892Z,97561.41
2022-12-12T08:55:43.657Z,97565.38
2022-12-12T09:00:45.504Z,97573.72
2022-12-12T09:05:47.642Z,97567.38
2022-12-12T09:10:50.511Z,97584.06
2022-12-12T09:15:52.987Z,97595.56
2022-12-12T09:20:56.843Z,97600.53
2022-12-12T09:25:59.134Z,97605.53
2022-12-12T09:31:03.386Z,97608.34
2022-12-12T09:36:08.145Z,97602.38
2022-12-12T09:41:09.902Z,97601.69
2022-12-12T09:46:32.646Z,97599.84
2022-12-12T09:51:36.070Z,97600.19
2022-12-12T09:56:57.462Z,97592.88
2022-12-12T10:02:26.259Z,97604.81
2022-12-12T10:07:51.672Z,97601.09
2022-12-12T10:12:58.547Z,97607.38
2022-12-12T10:18:05.358Z,97606.38
2022-12-12T10:23:40.050Z,97606.97
2022-12-12T10:28:42.075Z,97614.28
2022-12-12T10:34:16.260Z,97616.84
2022-12-12T10:39:32.992Z,97615.31
2022-12-12T10:45:19.603Z,97618.00
2022-12-12T10:50:37.670Z,97624.50
2022-12-12T10:55:45.303Z,97620.09
2022-12-12T11:00:49.605Z,97621.22
2022-12-12T11:05:51.486Z,97619.38
2022-12-12T11:11:24.829Z,97612.66
2022-12-12T11:16:40.788Z,97619.72
2022-12-12T11:21:43.282Z,97610.81
2022-12-12T11:27:04.466Z,97617.53
2022-12-12T11:32:14.565Z,97621.72
2022-12-12T11:37:19.196Z,97624.94
2022-12-12T11:42:26.687Z,97627.50
2022-12-12T11:47:41.017Z,97632.03
2022-12-12T11:52:43.016Z,97621.47
2022-12-12T11:57:47.687Z,97628.19
2022-12-12T12:03:11.054Z,97619.72
2022-12-12T12:08:28.938Z,97616.84
2022-12-12T12:13:45.823Z,97620.91
2022-12-12T12:19:16.275Z,97610.59
2022-12-12T12:24:52.105Z,97618.22
2022-12-12T12:30:13.705Z,97611.41
2022-12-12T12:35:29.399Z,97626.47
2022-12-12T12:40:43.321Z,97631.47
2022-12-12T12:45:57.750Z,97625.66
2022-12-12T12:51:04.725Z,97626.59
2022-12-12T12:56:22.286Z,97632.84
2022-12-12T13:01:42.485Z,97632.84
2022-12-12T13:07:25.679Z,97635.28
2022-12-12T13:12:44.501Z,97634.47
2022-12-12T13:17:48.995Z,97637.94
2022-12-12T13:23:21.777Z,97642.22
2022-12-12T13:28:35.957Z,97641.66
2022-12-12T13:33:44.557Z,97654.50
2022-12-12T13:38:53.583Z,97655.31
2022-12-12T13:43:57.950Z,97653.81
2022-12-12T13:49:16.887Z,97665.75
2022-12-12T13:54:38.598Z,97669.00
2022-12-12T13:59:58.372Z,97674.81
2022-12-12T14:05:35.624Z,97672.03
2022-12-12T14:10:43.651Z,97678.16
2022-12-12T14:15:48.358Z,97686.84
2022-12-12T14:20:56.266Z,97695.44
2022-12-12T14:26:00.006Z,97688.97
2022-12-12T14:31:17.201Z,97704.59
2022-12-12T14:36:37.663Z,97698.91
2022-12-12T14:41:42.998Z,97704.44
2022-12-12T14:46:44.781Z,97708.22
2022-12-12T14:51:50.677Z,97706.00
2022-12-12T14:56:59.178Z,97713.06
2022-12-12T15:02:15.984Z,97722.66
2022-12-12T15:07:28.083Z,97719.28
2022-12-12T15:12:34.969Z,97721.25
2022-12-12T15:17:46.104Z,97730.03
2022-12-12T15:22:57.392Z,97749.22
2022-12-12T15:27:59.564Z,97753.09
2022-12-12T15:33:03.413Z,97766.47
2022-12-12T15:38:13.157Z,97769.66
2022-12-12T15:43:24.863Z,97763.34
2022-12-12T15:48:27.605Z,97755.41
2022-12-12T15:53:35.579Z,97761.00
2022-12-12T15:58:43.686Z,97768.16
2022-12-12T16:04:01.752Z,97769.16
2022-12-12T16:09:18.777Z,97774.06
2022-12-12T16:14:42.450Z,97777.53
2022-12-12T16:19:57.703Z,97785.38
2022-12-12T16:25:23.394Z,97792.09
2022-12-12T16:35:28.690Z,97804.19
2022-12-12T16:40:30.717Z,97805.13
2022-12-12T16:45:32.535Z,97806.84
2022-12-12T16:50:35.426Z,97810.13
2022-12-12T16:55:39.686Z,97815.22
2022-12-12T17:00:41.595Z,97811.94
2022-12-12T17:05:45.022Z,97819.78
2022-12-12T17:10:48.488Z,97816.41
2022-12-12T17:15:51.906Z,97821.63
2022-12-12T17:20:53.806Z,97827.31
2022-12-12T17:26:02.449Z,97833.03
2022-12-12T17:31:09.667Z,97823.75
2022-12-12T17:36:13.189Z,97825.28
2022-12-12T17:41:15.043Z,97829.88
2022-12-12T17:46:17.856Z,97824.69
2022-12-12T17:51:23.972Z,97846.78
2022-12-12T17:56:26.796Z,97849.31
2022-12-12T18:01:33.621Z,97842.69
2022-12-12T18:06:36.135Z,97844.44
2022-12-12T18:11:38.970Z,97849.63
2022-12-12T18:16:44.973Z,97843.81
2022-12-12T18:22:02.843Z,97843.81
2022-12-12T18:27:04.803Z,97853.81
2022-12-12T18:32:06.788Z,97853.81
2022-12-12T18:37:08.847Z,97864.69
2022-12-12T18:42:12.013Z,97865.72
2022-12-12T18:47:13.930Z,97863.38
2022-12-12T18:52:16.112Z,97866.81
2022-12-12T18:57:18.403Z,97869.28
2022-12-12T19:02:20.369Z,97867.63
2022-12-12T19:07:22.370Z,97877.63
2022-12-12T19:12:24.357Z,97878.16
2022-12-12T19:17:27.020Z,97880.50
2022-12-12T19:22:44.946Z,97875.41
2022-12-12T19:27:48.641Z,97875.59
2022-12-12T19:32:50.535Z,97868.97
2022-12-12T19:37:52.659Z,97868.25
2022-12-12T19:42:54.525Z,97873.25
2022-12-12T19:47:56.574Z,97880.88
2022-12-12T19:53:01.457Z,97875.78
2022-12-12T19:58:04.698Z,97878.25
2022-12-12T20:03:06.705Z,97883.34
2022-12-12T20:08:08.686Z,97884.16
2022-12-12T20:13:11.696Z,97883.34
2022-12-12T20:18:16.330Z,97880.88
2022-12-12T20:23:18.651Z,97883.44
2022-12-12T20:28:20.552Z,97877.63
2022-12-12T20:33:22.419Z,97873.34
2022-12-12T20:38:25.310Z,97866.63
2022-12-12T20:43:28.602Z,97870.19
2022-12-12T20:48:30.434Z,97879.66
2022-12-12T20:53:36.388Z,97887.38
2022-12-12T20:58:39.674Z,97890.03
2022-12-12T21:03:43.115Z,97892.69
2022-12-12T21:08:46.238Z,97888.22
2022-12-12T21:13:50.815Z,97888.22
2022-12-12T21:18:55.047Z,97884.84
2022-12-12T21:23:58.023Z,97883.13
2022-12-12T21:29:02.008Z,97888.00
2022-12-12T21:34:06.147Z,97899.81
2022-12-12T21:39:08.646Z,97904.91
2022-12-12T21:44:10.706Z,97901.84
2022-12-12T21:49:28.260Z,97902.84
2022-12-12T21:54:30.763Z,97895.13
2022-12-12T21:59:32.673Z,97895.75
2022-12-12T22:04:34.515Z,97901.66
2022-12-12T22:09:36.378Z,97916.00
2022-12-12T22:14:38.239Z,97906.75
2022-12-12T22:19:40.048Z,97905.81
2022-12-12T22:24:41.837Z,97896.56
2022-12-12T22:29:43.689Z,97893.19
2022-12-12T22:34:45.545Z,97882.41
2022-12-12T22:39:47.443Z,97886.66
2022-12-12T22:44:49.205Z,97893.28
2022-12-12T22:49:52.664Z,97890.84
2022-12-12T22:54:54.933Z,97887.50
2022-12-12T22:59:56.920Z,97888.31
2022-12-12T23:04:58.854Z,97884.03
2022-12-12T23:10:02.446Z,97884.94
2022-12-12T23:15:05.031Z,97883.31
2022-12-12T23:20:07.998Z,97881.59
2022-12-12T23:25:09.746Z,97886.16
2022-12-12T23:30:11.875Z,97880.34
2022-12-12T23:35:14.192Z,97885.63
2022-12-12T23:40:16.363Z,97882.47
2022-12-12T23:45:18.366Z,97880.09
2022-12-12T23:50:20.226Z,97883.75
2022-12-12T23:55:22.107Z,97879.78
